Gordo, Alabama
Current Conditions -  °F | °C
As of 10:53 PM on Sunday 21 Dec 2014 (Local Time) from KTCL Reporting Station
Overcast Overcast  
Wind Chill: 52°   Ceiling: 1100
Heat Index: 52°   Visibility: 8mi
Dew Point: 48°   Wind: 5mph
Humidity: 86%   Direction: 90°E
Pressure: 30.02"   Gusts: NA
Location:  33.32°N, 87.9°W
Report Text: KTCL 220453Z AUTO 09004KT 8SM BKN011 OVC020 11/09 A3002 RMK AO2 SLP166 T01110089
Loading
Personal Weather Stations






























Interactive Weather Map New forecast layout! Learn more

10-Day Weather Forecast

Advertisements
Track Severe Weather on mobile